sensor_id;sensor_type;location;lat;lon;timestamp;pressure;altitude;pressure_sealevel;temperature;humidity
35419;BME280;21525;41.240;16.500;2024-03-07T00:00:35;101338.91;;;16.05;48.63
35419;BME280;21525;41.240;16.500;2024-03-07T00:03:01;101332.22;;;16.26;48.17
35419;BME280;21525;41.240;16.500;2024-03-07T00:05:27;101335.78;;;16.56;47.62
35419;BME280;21525;41.240;16.500;2024-03-07T00:07:53;101334.13;;;16.21;47.68
35419;BME280;21525;41.240;16.500;2024-03-07T00:10:19;101328.72;;;16.25;47.56
35419;BME280;21525;41.240;16.500;2024-03-07T00:12:47;101324.56;;;16.18;47.27
35419;BME280;21525;41.240;16.500;2024-03-07T00:15:14;101318.19;;;16.27;46.96
35419;BME280;21525;41.240;16.500;2024-03-07T00:17:41;101325.59;;;16.12;47.29
35419;BME280;21525;41.240;16.500;2024-03-07T00:20:07;101319.81;;;15.98;47.55
35419;BME280;21525;41.240;16.500;2024-03-07T00:22:41;101318.28;;;16.24;47.05
35419;BME280;21525;41.240;16.500;2024-03-07T00:25:07;101316.22;;;16.35;46.83
35419;BME280;21525;41.240;16.500;2024-03-07T00:27:35;101320.00;;;16.25;46.70
35419;BME280;21525;41.240;16.500;2024-03-07T00:30:05;101324.47;;;16.54;46.23
35419;BME280;21525;41.240;16.500;2024-03-07T00:32:32;101325.06;;;16.31;46.58
35419;BME280;21525;41.240;16.500;2024-03-07T00:35:02;101324.50;;;16.52;46.17
35419;BME280;21525;41.240;16.500;2024-03-07T00:37:30;101322.53;;;16.28;46.41
35419;BME280;21525;41.240;16.500;2024-03-07T00:39:57;101325.38;;;16.20;46.88
35419;BME280;21525;41.240;16.500;2024-03-07T00:42:22;101330.25;;;16.01;47.01
35419;BME280;21525;41.240;16.500;2024-03-07T00:44:48;101324.53;;;16.20;46.38
35419;BME280;21525;41.240;16.500;2024-03-07T00:47:17;101324.44;;;15.90;46.60
35419;BME280;21525;41.240;16.500;2024-03-07T00:49:46;101318.06;;;16.31;46.19
35419;BME280;21525;41.240;16.500;2024-03-07T00:52:15;101323.88;;;16.11;46.36
35419;BME280;21525;41.240;16.500;2024-03-07T00:54:41;101312.88;;;15.96;46.54
35419;BME280;21525;41.240;16.500;2024-03-07T00:57:08;101311.84;;;16.35;45.84
35419;BME280;21525;41.240;16.500;2024-03-07T00:59:34;101305.19;;;16.24;45.79
35419;BME280;21525;41.240;16.500;2024-03-07T01:02:00;101305.19;;;15.90;46.09
35419;BME280;21525;41.240;16.500;2024-03-07T01:04:25;101307.88;;;15.88;46.34
35419;BME280;21525;41.240;16.500;2024-03-07T01:06:57;101312.34;;;15.83;46.74
35419;BME280;21525;41.240;16.500;2024-03-07T01:09:24;101308.28;;;16.05;45.90
35419;BME280;21525;41.240;16.500;2024-03-07T01:11:50;101310.25;;;15.62;46.86
35419;BME280;21525;41.240;16.500;2024-03-07T01:14:16;101301.72;;;15.15;47.80
35419;BME280;21525;41.240;16.500;2024-03-07T01:16:42;101310.34;;;14.80;48.25
35419;BME280;21525;41.240;16.500;2024-03-07T01:19:08;101313.81;;;14.36;49.79
35419;BME280;21525;41.240;16.500;2024-03-07T01:21:36;101313.69;;;14.45;50.36
35419;BME280;21525;41.240;16.500;2024-03-07T01:24:02;101305.41;;;14.66;49.42
35419;BME280;21525;41.240;16.500;2024-03-07T01:26:29;101307.94;;;15.11;48.88
35419;BME280;21525;41.240;16.500;2024-03-07T01:28:56;101300.88;;;15.52;47.97
35419;BME280;21525;41.240;16.500;2024-03-07T01:31:23;101297.00;;;15.29;48.28
35419;BME280;21525;41.240;16.500;2024-03-07T01:33:50;101300.75;;;15.21;48.59
35419;BME280;21525;41.240;16.500;2024-03-07T01:36:16;101292.50;;;15.36;48.21
35419;BME280;21525;41.240;16.500;2024-03-07T01:38:42;101290.78;;;15.35;48.26
35419;BME280;21525;41.240;16.500;2024-03-07T01:41:08;101295.97;;;15.36;47.93
35419;BME280;21525;41.240;16.500;2024-03-07T01:43:34;101297.16;;;15.25;48.10
35419;BME280;21525;41.240;16.500;2024-03-07T01:46:00;101296.44;;;15.18;48.53
35419;BME280;21525;41.240;16.500;2024-03-07T01:48:28;101298.81;;;15.27;48.73
35419;BME280;21525;41.240;16.500;2024-03-07T01:50:55;101304.16;;;15.24;48.81
35419;BME280;21525;41.240;16.500;2024-03-07T01:53:22;101297.41;;;15.12;48.93
35419;BME280;21525;41.240;16.500;2024-03-07T01:55:49;101298.13;;;15.21;48.28
35419;BME280;21525;41.240;16.500;2024-03-07T01:58:17;101305.88;;;15.25;48.52
35419;BME280;21525;41.240;16.500;2024-03-07T02:00:43;101303.38;;;15.58;48.20
35419;BME280;21525;41.240;16.500;2024-03-07T02:03:09;101297.63;;;15.03;48.90
35419;BME280;21525;41.240;16.500;2024-03-07T02:05:35;101292.88;;;14.81;49.20
35419;BME280;21525;41.240;16.500;2024-03-07T02:08:01;101292.97;;;15.16;49.11
35419;BME280;21525;41.240;16.500;2024-03-07T02:10:27;101283.00;;;15.30;48.62
35419;BME280;21525;41.240;16.500;2024-03-07T02:12:53;101287.19;;;15.39;48.13
35419;BME280;21525;41.240;16.500;2024-03-07T02:15:19;101296.75;;;14.63;49.91
35419;BME280;21525;41.240;16.500;2024-03-07T02:17:45;101292.22;;;14.26;50.59
35419;BME280;21525;41.240;16.500;2024-03-07T02:20:11;101288.94;;;14.61;49.98
35419;BME280;21525;41.240;16.500;2024-03-07T02:22:37;101287.19;;;15.00;49.29
35419;BME280;21525;41.240;16.500;2024-03-07T02:25:03;101284.88;;;15.27;48.85
35419;BME280;21525;41.240;16.500;2024-03-07T02:27:29;101286.41;;;14.97;48.92
35419;BME280;21525;41.240;16.500;2024-03-07T02:29:55;101279.69;;;14.85;49.12
35419;BME280;21525;41.240;16.500;2024-03-07T02:32:20;101273.88;;;15.11;48.85
35419;BME280;21525;41.240;16.500;2024-03-07T02:34:46;101273.06;;;15.07;48.63
35419;BME280;21525;41.240;16.500;2024-03-07T02:37:12;101271.31;;;14.68;49.21
35419;BME280;21525;41.240;16.500;2024-03-07T02:39:39;101270.63;;;15.00;48.38
35419;BME280;21525;41.240;16.500;2024-03-07T02:42:05;101269.34;;;15.18;48.26
35419;BME280;21525;41.240;16.500;2024-03-07T02:44:31;101263.81;;;14.93;48.68
35419;BME280;21525;41.240;16.500;2024-03-07T02:46:58;101257.47;;;15.03;48.66
35419;BME280;21525;41.240;16.500;2024-03-07T02:49:24;101258.97;;;14.74;49.40
35419;BME280;21525;41.240;16.500;2024-03-07T02:51:49;101256.50;;;15.07;49.15
35419;BME280;21525;41.240;16.500;2024-03-07T02:54:15;101258.97;;;15.13;49.25
35419;BME280;21525;41.240;16.500;2024-03-07T02:56:41;101261.06;;;14.97;49.85
35419;BME280;21525;41.240;16.500;2024-03-07T02:59:07;101246.78;;;15.12;49.48
35419;BME280;21525;41.240;16.500;2024-03-07T03:01:33;101252.88;;;15.12;49.33
35419;BME280;21525;41.240;16.500;2024-03-07T03:03:59;101247.53;;;15.17;49.54
35419;BME280;21525;41.240;16.500;2024-03-07T03:06:24;101252.03;;;15.10;49.47
35419;BME280;21525;41.240;16.500;2024-03-07T03:08:50;101256.22;;;15.19;49.87
35419;BME280;21525;41.240;16.500;2024-03-07T03:11:16;101246.84;;;15.44;49.22
35419;BME280;21525;41.240;16.500;2024-03-07T03:13:42;101252.66;;;15.22;49.63
35419;BME280;21525;41.240;16.500;2024-03-07T03:16:09;101249.53;;;15.06;50.14
35419;BME280;21525;41.240;16.500;2024-03-07T03:18:35;101261.03;;;14.99;49.86
35419;BME280;21525;41.240;16.500;2024-03-07T03:21:02;101251.81;;;15.21;49.73
35419;BME280;21525;41.240;16.500;2024-03-07T03:23:29;101240.63;;;15.13;49.74
35419;BME280;21525;41.240;16.500;2024-03-07T03:25:55;101249.72;;;14.97;49.97
35419;BME280;21525;41.240;16.500;2024-03-07T03:28:21;101240.72;;;15.10;49.88
35419;BME280;21525;41.240;16.500;2024-03-07T03:30:48;101245.59;;;14.88;50.18
35419;BME280;21525;41.240;16.500;2024-03-07T03:33:14;101249.25;;;15.18;49.50
35419;BME280;21525;41.240;16.500;2024-03-07T03:35:40;101247.50;;;15.19;49.99
35419;BME280;21525;41.240;16.500;2024-03-07T03:38:07;101268.38;;;14.85;50.23
35419;BME280;21525;41.240;16.500;2024-03-07T03:40:34;101261.00;;;15.00;50.04
35419;BME280;21525;41.240;16.500;2024-03-07T03:43:00;101257.25;;;14.73;50.59
35419;BME280;21525;41.240;16.500;2024-03-07T03:45:26;101255.47;;;14.75;51.37
35419;BME280;21525;41.240;16.500;2024-03-07T03:47:53;101261.56;;;14.76;51.23
35419;BME280;21525;41.240;16.500;2024-03-07T03:50:19;101258.41;;;14.60;51.09
35419;BME280;21525;41.240;16.500;2024-03-07T03:52:45;101265.28;;;14.64;50.60
35419;BME280;21525;41.240;16.500;2024-03-07T03:55:11;101263.13;;;14.85;50.73
35419;BME280;21525;41.240;16.500;2024-03-07T03:57:39;101270.78;;;14.94;50.37
35419;BME280;21525;41.240;16.500;2024-03-07T04:00:06;101267.84;;;14.67;50.42
35419;BME280;21525;41.240;16.500;2024-03-07T04:02:41;101265.31;;;14.63;49.76
35419;BME280;21525;41.240;16.500;2024-03-07T04:05:10;101270.13;;;14.84;49.44
35419;BME280;21525;41.240;16.500;2024-03-07T04:07:37;101273.28;;;14.58;48.95
35419;BME280;21525;41.240;16.500;2024-03-07T04:10:04;101278.91;;;14.37;49.71
35419;BME280;21525;41.240;16.500;2024-03-07T04:12:32;101279.19;;;14.68;48.86
35419;BME280;21525;41.240;16.500;2024-03-07T04:14:58;101281.41;;;14.88;48.90
35419;BME280;21525;41.240;16.500;2024-03-07T04:17:24;101275.03;;;14.59;48.93
35419;BME280;21525;41.240;16.500;2024-03-07T04:19:50;101273.56;;;14.44;48.61
35419;BME280;21525;41.240;16.500;2024-03-07T04:22:16;101277.44;;;14.68;48.55
35419;BME280;21525;41.240;16.500;2024-03-07T04:24:45;101278.00;;;14.83;48.11
35419;BME280;21525;41.240;16.500;2024-03-07T04:27:11;101280.09;;;14.65;47.98
35419;BME280;21525;41.240;16.500;2024-03-07T04:29:37;101274.63;;;14.77;48.04
35419;BME280;21525;41.240;16.500;2024-03-07T04:32:04;101277.09;;;14.42;48.53
35419;BME280;21525;41.240;16.500;2024-03-07T04:34:31;101282.00;;;14.60;48.67
35419;BME280;21525;41.240;16.500;2024-03-07T04:36:57;101288.78;;;14.67;48.31
35419;BME280;21525;41.240;16.500;2024-03-07T04:39:25;101286.22;;;14.64;48.07
35419;BME280;21525;41.240;16.500;2024-03-07T04:42:02;101288.75;;;14.26;48.91
35419;BME280;21525;41.240;16.500;2024-03-07T04:44:29;101292.63;;;14.51;48.52
35419;BME280;21525;41.240;16.500;2024-03-07T04:46:55;101295.88;;;14.62;48.74
35419;BME280;21525;41.240;16.500;2024-03-07T04:49:23;101284.38;;;14.69;48.17
35419;BME280;21525;41.240;16.500;2024-03-07T04:51:50;101291.63;;;14.58;48.39
35419;BME280;21525;41.240;16.500;2024-03-07T04:54:17;101295.63;;;14.30;48.87
35419;BME280;21525;41.240;16.500;2024-03-07T04:56:44;101294.06;;;14.21;49.26
35419;BME280;21525;41.240;16.500;2024-03-07T04:59:09;101300.06;;;14.28;48.98
35419;BME280;21525;41.240;16.500;2024-03-07T05:01:37;101296.06;;;14.07;49.82
35419;BME280;21525;41.240;16.500;2024-03-07T05:04:04;101291.69;;;14.07;49.62
35419;BME280;21525;41.240;16.500;2024-03-07T05:06:31;101293.41;;;14.08;49.62
35419;BME280;21525;41.240;16.500;2024-03-07T05:09:03;101292.97;;;13.85;50.16
35419;BME280;21525;41.240;16.500;2024-03-07T05:11:35;101291.78;;;14.03;49.60
35419;BME280;21525;41.240;16.500;2024-03-07T05:14:01;101297.16;;;13.95;49.79
35419;BME280;21525;41.240;16.500;2024-03-07T05:16:28;101297.91;;;14.00;50.01
35419;BME280;21525;41.240;16.500;2024-03-07T05:18:55;101303.53;;;13.79;50.23
35419;BME280;21525;41.240;16.500;2024-03-07T05:21:28;101301.34;;;14.04;49.92
35419;BME280;21525;41.240;16.500;2024-03-07T05:24:04;101301.28;;;14.07;49.57
35419;BME280;21525;41.240;16.500;2024-03-07T05:26:31;101308.38;;;14.00;49.78
35419;BME280;21525;41.240;16.500;2024-03-07T05:29:05;101301.56;;;14.41;49.30
35419;BME280;21525;41.240;16.500;2024-03-07T05:31:39;101300.06;;;14.28;49.47
35419;BME280;21525;41.240;16.500;2024-03-07T05:34:15;101297.72;;;14.12;50.04
35419;BME280;21525;41.240;16.500;2024-03-07T05:36:41;101304.16;;;14.41;49.92
35419;BME280;21525;41.240;16.500;2024-03-07T05:39:14;101310.72;;;14.17;49.79
35419;BME280;21525;41.240;16.500;2024-03-07T05:41:42;101304.31;;;14.32;49.58
35419;BME280;21525;41.240;16.500;2024-03-07T05:44:10;101303.31;;;14.39;49.62
35419;BME280;21525;41.240;16.500;2024-03-07T05:46:40;101302.16;;;14.07;50.14
35419;BME280;21525;41.240;16.500;2024-03-07T05:49:14;101307.19;;;14.64;49.48
35419;BME280;21525;41.240;16.500;2024-03-07T05:51:41;101299.66;;;14.49;49.55
35419;BME280;21525;41.240;16.500;2024-03-07T05:54:12;101297.41;;;15.87;48.99
35419;BME280;21525;41.240;16.500;2024-03-07T05:56:39;101301.84;;;17.63;49.19
35419;BME280;21525;41.240;16.500;2024-03-07T05:59:09;101300.53;;;18.99;61.59
35419;BME280;21525;41.240;16.500;2024-03-07T06:01:38;101299.34;;;18.61;48.35
35419;BME280;21525;41.240;16.500;2024-03-07T06:04:05;101296.50;;;19.56;48.00
35419;BME280;21525;41.240;16.500;2024-03-07T06:06:32;101302.19;;;20.87;43.84
35419;BME280;21525;41.240;16.500;2024-03-07T06:09:00;101295.38;;;22.08;38.64
35419;BME280;21525;41.240;16.500;2024-03-07T06:11:28;101300.44;;;22.79;37.32
35419;BME280;21525;41.240;16.500;2024-03-07T06:13:53;101296.03;;;24.17;38.88
35419;BME280;21525;41.240;16.500;2024-03-07T06:16:19;101296.72;;;24.20;39.28
35419;BME280;21525;41.240;16.500;2024-03-07T06:18:45;101298.84;;;24.43;38.16
35419;BME280;21525;41.240;16.500;2024-03-07T06:21:12;101296.75;;;24.04;35.63
35419;BME280;21525;41.240;16.500;2024-03-07T06:23:39;101290.75;;;24.45;35.99
35419;BME280;21525;41.240;16.500;2024-03-07T06:26:05;101292.09;;;25.49;35.25
35419;BME280;21525;41.240;16.500;2024-03-07T06:28:38;101289.34;;;25.90;34.27
35419;BME280;21525;41.240;16.500;2024-03-07T06:31:04;101287.88;;;25.98;38.50
35419;BME280;21525;41.240;16.500;2024-03-07T06:33:33;101282.78;;;26.33;32.51
35419;BME280;21525;41.240;16.500;2024-03-07T06:35:59;101278.47;;;26.05;32.59
35419;BME280;21525;41.240;16.500;2024-03-07T06:38:26;101277.41;;;27.32;31.85
35419;BME280;21525;41.240;16.500;2024-03-07T06:40:52;101291.94;;;26.55;32.43
35419;BME280;21525;41.240;16.500;2024-03-07T06:43:18;101274.94;;;29.01;30.64
35419;BME280;21525;41.240;16.500;2024-03-07T06:45:44;101270.84;;;28.86;35.05
35419;BME280;21525;41.240;16.500;2024-03-07T06:48:11;101278.75;;;29.62;30.36
35419;BME280;21525;41.240;16.500;2024-03-07T06:50:39;101275.22;;;28.42;31.28
35419;BME280;21525;41.240;16.500;2024-03-07T06:53:06;101275.03;;;29.95;29.73
35419;BME280;21525;41.240;16.500;2024-03-07T06:55:32;101279.53;;;29.21;30.88
35419;BME280;21525;41.240;16.500;2024-03-07T06:58:02;101279.84;;;28.40;30.31
35419;BME280;21525;41.240;16.500;2024-03-07T07:00:31;101275.47;;;29.27;30.37
35419;BME280;21525;41.240;16.500;2024-03-07T07:03:01;101281.47;;;29.83;30.05
35419;BME280;21525;41.240;16.500;2024-03-07T07:05:29;101280.50;;;30.35;31.23
35419;BME280;21525;41.240;16.500;2024-03-07T07:07:55;101279.91;;;30.01;29.35
35419;BME280;21525;41.240;16.500;2024-03-07T07:10:21;101280.66;;;30.34;30.18
35419;BME280;21525;41.240;16.500;2024-03-07T07:12:50;101295.47;;;29.23;31.14
35419;BME280;21525;41.240;16.500;2024-03-07T07:15:18;101277.75;;;30.87;30.01
35419;BME280;21525;41.240;16.500;2024-03-07T07:17:47;101283.22;;;31.25;28.13
35419;BME280;21525;41.240;16.500;2024-03-07T07:20:16;101278.25;;;31.21;27.98
35419;BME280;21525;41.240;16.500;2024-03-07T07:22:44;101281.28;;;31.76;29.24
35419;BME280;21525;41.240;16.500;2024-03-07T07:25:12;101289.06;;;31.69;26.98
35419;BME280;21525;41.240;16.500;2024-03-07T07:27:45;101287.38;;;30.80;27.32
35419;BME280;21525;41.240;16.500;2024-03-07T07:30:13;101284.34;;;31.52;27.28
35419;BME280;21525;41.240;16.500;2024-03-07T07:32:40;101285.91;;;30.66;27.31
35419;BME280;21525;41.240;16.500;2024-03-07T07:35:07;101301.56;;;29.89;28.23
35419;BME280;21525;41.240;16.500;2024-03-07T07:37:44;101299.91;;;29.97;27.68
35419;BME280;21525;41.240;16.500;2024-03-07T07:40:13;101301.94;;;29.20;28.62
35419;BME280;21525;41.240;16.500;2024-03-07T07:42:41;101310.63;;;29.33;28.33
35419;BME280;21525;41.240;16.500;2024-03-07T07:45:09;101302.63;;;30.49;27.41
35419;BME280;21525;41.240;16.500;2024-03-07T07:47:46;101303.59;;;31.18;26.83
35419;BME280;21525;41.240;16.500;2024-03-07T07:50:16;101305.03;;;30.82;26.56
35419;BME280;21525;41.240;16.500;2024-03-07T07:52:44;101318.19;;;29.39;27.86
35419;BME280;21525;41.240;16.500;2024-03-07T07:55:10;101305.19;;;30.81;27.22
35419;BME280;21525;41.240;16.500;2024-03-07T07:57:46;101304.09;;;30.32;27.43
35419;BME280;21525;41.240;16.500;2024-03-07T08:00:14;101303.31;;;30.71;27.49
35419;BME280;21525;41.240;16.500;2024-03-07T08:05:18;101307.47;;;29.28;28.13
35419;BME280;21525;41.240;16.500;2024-03-07T08:07:47;101305.28;;;28.57;29.09
35419;BME280;21525;41.240;16.500;2024-03-07T08:10:14;101309.31;;;27.70;29.10
35419;BME280;21525;41.240;16.500;2024-03-07T08:12:41;101318.25;;;27.58;30.20
35419;BME280;21525;41.240;16.500;2024-03-07T08:15:11;101317.56;;;26.57;30.23
35419;BME280;21525;41.240;16.500;2024-03-07T08:17:40;101314.91;;;27.06;29.91
35419;BME280;21525;41.240;16.500;2024-03-07T08:20:18;101308.84;;;27.76;29.88
35419;BME280;21525;41.240;16.500;2024-03-07T08:22:46;101313.19;;;28.01;29.86
35419;BME280;21525;41.240;16.500;2024-03-07T08:25:15;101313.84;;;27.81;29.75
35419;BME280;21525;41.240;16.500;2024-03-07T08:27:44;101319.19;;;27.09;30.39
35419;BME280;21525;41.240;16.500;2024-03-07T08:30:11;101320.84;;;26.23;30.68
35419;BME280;21525;41.240;16.500;2024-03-07T08:32:40;101325.50;;;25.40;31.29
35419;BME280;21525;41.240;16.500;2024-03-07T08:35:07;101320.31;;;26.18;31.01
35419;BME280;21525;41.240;16.500;2024-03-07T08:37:43;101323.28;;;26.13;30.63
35419;BME280;21525;41.240;16.500;2024-03-07T08:40:10;101324.22;;;25.99;31.08
35419;BME280;21525;41.240;16.500;2024-03-07T08:42:37;101325.63;;;26.68;30.95
35419;BME280;21525;41.240;16.500;2024-03-07T08:45:04;101317.16;;;27.13;30.75
35419;BME280;21525;41.240;16.500;2024-03-07T08:47:34;101315.63;;;27.21;30.13
35419;BME280;21525;41.240;16.500;2024-03-07T08:50:01;101327.03;;;26.23;30.91
35419;BME280;21525;41.240;16.500;2024-03-07T08:52:27;101330.44;;;25.05;31.99
35419;BME280;21525;41.240;16.500;2024-03-07T08:54:54;101330.22;;;25.63;31.82
35419;BME280;21525;41.240;16.500;2024-03-07T08:57:20;101328.63;;;25.73;32.09
35419;BME280;21525;41.240;16.500;2024-03-07T08:59:47;101332.91;;;26.28;31.69
35419;BME280;21525;41.240;16.500;2024-03-07T09:02:14;101330.28;;;26.01;31.82
35419;BME280;21525;41.240;16.500;2024-03-07T09:04:40;101333.50;;;25.94;31.90
35419;BME280;21525;41.240;16.500;2024-03-07T09:07:07;101333.97;;;26.76;31.41
35419;BME280;21525;41.240;16.500;2024-03-07T09:09:34;101330.53;;;26.87;30.90
35419;BME280;21525;41.240;16.500;2024-03-07T09:12:03;101329.19;;;26.56;30.98
35419;BME280;21525;41.240;16.500;2024-03-07T09:14:29;101334.63;;;26.55;31.18
35419;BME280;21525;41.240;16.500;2024-03-07T09:16:55;101341.03;;;26.39;30.92
35419;BME280;21525;41.240;16.500;2024-03-07T09:19:20;101336.50;;;26.15;31.24
35419;BME280;21525;41.240;16.500;2024-03-07T09:21:52;101344.03;;;26.48;31.28
35419;BME280;21525;41.240;16.500;2024-03-07T09:24:19;101341.00;;;26.14;32.54
35419;BME280;21525;41.240;16.500;2024-03-07T09:26:51;101342.81;;;25.74;33.83
35419;BME280;21525;41.240;16.500;2024-03-07T09:29:18;101337.97;;;25.39;34.83
35419;BME280;21525;41.240;16.500;2024-03-07T09:31:45;101345.81;;;25.82;34.50
35419;BME280;21525;41.240;16.500;2024-03-07T09:34:12;101335.41;;;26.31;34.18
35419;BME280;21525;41.240;16.500;2024-03-07T09:36:41;101340.53;;;26.07;34.28
35419;BME280;21525;41.240;16.500;2024-03-07T09:39:10;101339.25;;;26.00;33.91
35419;BME280;21525;41.240;16.500;2024-03-07T09:41:38;101341.00;;;25.74;34.83
35419;BME280;21525;41.240;16.500;2024-03-07T09:44:05;101338.84;;;26.06;34.30
35419;BME280;21525;41.240;16.500;2024-03-07T09:46:31;101338.88;;;26.32;34.34
35419;BME280;21525;41.240;16.500;2024-03-07T09:49:00;101337.94;;;26.46;34.32
35419;BME280;21525;41.240;16.500;2024-03-07T09:51:27;101342.31;;;25.55;34.81
35419;BME280;21525;41.240;16.500;2024-03-07T09:53:56;101343.06;;;25.84;34.56
35419;BME280;21525;41.240;16.500;2024-03-07T09:56:27;101336.50;;;26.15;34.23
35419;BME280;21525;41.240;16.500;2024-03-07T09:58:57;101338.38;;;26.00;34.35
35419;BME280;21525;41.240;16.500;2024-03-07T10:01:26;101341.25;;;25.30;35.50
35419;BME280;21525;41.240;16.500;2024-03-07T10:03:57;101344.66;;;25.59;35.30
35419;BME280;21525;41.240;16.500;2024-03-07T10:06:24;101341.31;;;24.59;35.81
35419;BME280;21525;41.240;16.500;2024-03-07T10:08:50;101346.25;;;24.51;36.41
35419;BME280;21525;41.240;16.500;2024-03-07T10:11:16;101345.16;;;25.25;36.15
35419;BME280;21525;41.240;16.500;2024-03-07T10:13:42;101345.50;;;24.63;36.02
35419;BME280;21525;41.240;16.500;2024-03-07T10:16:07;101344.06;;;24.58;35.79
35419;BME280;21525;41.240;16.500;2024-03-07T10:18:41;101339.75;;;23.67;37.08
35419;BME280;21525;41.240;16.500;2024-03-07T10:21:08;101357.63;;;23.48;37.56
35419;BME280;21525;41.240;16.500;2024-03-07T10:23:34;101349.72;;;24.07;37.15
35419;BME280;21525;41.240;16.500;2024-03-07T10:26:00;101348.00;;;23.92;36.87
35419;BME280;21525;41.240;16.500;2024-03-07T10:28:27;101352.28;;;24.39;36.61
35419;BME280;21525;41.240;16.500;2024-03-07T10:30:53;101344.53;;;24.64;36.33
35419;BME280;21525;41.240;16.500;2024-03-07T10:33:19;101342.34;;;24.57;36.71
35419;BME280;21525;41.240;16.500;2024-03-07T10:35:49;101337.88;;;24.29;36.21
35419;BME280;21525;41.240;16.500;2024-03-07T10:38:15;101347.66;;;23.98;36.83
35419;BME280;21525;41.240;16.500;2024-03-07T10:40:41;101334.78;;;24.21;36.75
35419;BME280;21525;41.240;16.500;2024-03-07T10:43:10;101350.38;;;23.04;38.54
35419;BME280;21525;41.240;16.500;2024-03-07T10:45:44;101347.34;;;22.61;38.94
35419;BME280;21525;41.240;16.500;2024-03-07T10:48:16;101340.25;;;23.10;38.84
35419;BME280;21525;41.240;16.500;2024-03-07T10:50:48;101338.03;;;23.96;38.08
35419;BME280;21525;41.240;16.500;2024-03-07T10:53:28;101335.81;;;24.04;37.94
35419;BME280;21525;41.240;16.500;2024-03-07T10:56:02;101331.31;;;24.34;37.66
35419;BME280;21525;41.240;16.500;2024-03-07T10:59:09;101334.34;;;24.42;37.47
35419;BME280;21525;41.240;16.500;2024-03-07T11:01:49;101324.38;;;24.74;37.08
35419;BME280;21525;41.240;16.500;2024-03-07T11:04:17;101327.63;;;24.65;37.10
35419;BME280;21525;41.240;16.500;2024-03-07T11:06:43;101323.72;;;24.71;37.50
35419;BME280;21525;41.240;16.500;2024-03-07T11:09:10;101319.34;;;24.84;37.02
35419;BME280;21525;41.240;16.500;2024-03-07T11:11:39;101321.47;;;24.36;37.50
35419;BME280;21525;41.240;16.500;2024-03-07T11:14:08;101312.41;;;24.82;37.32
35419;BME280;21525;41.240;16.500;2024-03-07T11:16:40;101316.69;;;24.27;37.59
35419;BME280;21525;41.240;16.500;2024-03-07T11:21:48;101303.72;;;24.21;37.35
35419;BME280;21525;41.240;16.500;2024-03-07T11:24:31;101298.47;;;24.50;37.22
35419;BME280;21525;41.240;16.500;2024-03-07T11:26:59;101297.31;;;24.54;37.53
35419;BME280;21525;41.240;16.500;2024-03-07T11:29:47;101296.25;;;24.85;37.64
35419;BME280;21525;41.240;16.500;2024-03-07T11:32:14;101292.06;;;24.81;37.78
35419;BME280;21525;41.240;16.500;2024-03-07T11:34:41;101293.06;;;24.65;38.15
35419;BME280;21525;41.240;16.500;2024-03-07T11:37:08;101286.94;;;24.77;37.74
35419;BME280;21525;41.240;16.500;2024-03-07T11:39:50;101294.09;;;24.34;38.11
35419;BME280;21525;41.240;16.500;2024-03-07T11:42:25;101288.84;;;24.75;37.43
35419;BME280;21525;41.240;16.500;2024-03-07T11:44:55;101289.28;;;23.97;38.56
35419;BME280;21525;41.240;16.500;2024-03-07T11:47:25;101289.84;;;24.02;38.93
35419;BME280;21525;41.240;16.500;2024-03-07T11:49:55;101283.16;;;24.53;38.41
35419;BME280;21525;41.240;16.500;2024-03-07T11:52:23;101280.13;;;24.59;38.36
35419;BME280;21525;41.240;16.500;2024-03-07T11:54:50;101278.81;;;24.66;38.44
35419;BME280;21525;41.240;16.500;2024-03-07T11:59:45;101280.41;;;23.82;38.34
35419;BME280;21525;41.240;16.500;2024-03-07T12:02:13;101278.13;;;23.30;38.19
35419;BME280;21525;41.240;16.500;2024-03-07T12:04:43;101279.41;;;23.39;38.50
35419;BME280;21525;41.240;16.500;2024-03-07T12:07:10;101281.13;;;23.24;38.88
35419;BME280;21525;41.240;16.500;2024-03-07T12:09:44;101280.19;;;22.94;39.25
35419;BME280;21525;41.240;16.500;2024-03-07T12:12:17;101284.63;;;23.09;39.16
35419;BME280;21525;41.240;16.500;2024-03-07T12:14:44;101275.63;;;23.73;38.77
35419;BME280;21525;41.240;16.500;2024-03-07T12:17:09;101268.56;;;23.88;38.14
35419;BME280;21525;41.240;16.500;2024-03-07T12:19:35;101272.66;;;24.07;37.60
35419;BME280;21525;41.240;16.500;2024-03-07T12:22:07;101269.19;;;24.21;37.21
35419;BME280;21525;41.240;16.500;2024-03-07T12:24:41;101273.53;;;24.22;37.04
35419;BME280;21525;41.240;16.500;2024-03-07T12:27:12;101274.13;;;24.41;37.24
35419;BME280;21525;41.240;16.500;2024-03-07T12:29:39;101270.09;;;24.36;37.57
35419;BME280;21525;41.240;16.500;2024-03-07T12:32:06;101265.38;;;23.97;37.45
35419;BME280;21525;41.240;16.500;2024-03-07T12:34:43;101266.88;;;24.01;37.96
35419;BME280;21525;41.240;16.500;2024-03-07T12:37:12;101262.66;;;23.83;38.17
35419;BME280;21525;41.240;16.500;2024-03-07T12:39:43;101272.13;;;24.02;38.36
35419;BME280;21525;41.240;16.500;2024-03-07T12:42:13;101264.53;;;23.51;39.21
35419;BME280;21525;41.240;16.500;2024-03-07T12:44:44;101261.63;;;23.71;38.83
35419;BME280;21525;41.240;16.500;2024-03-07T12:47:14;101269.00;;;23.66;39.32
35419;BME280;21525;41.240;16.500;2024-03-07T12:49:41;101269.31;;;22.83;40.57
35419;BME280;21525;41.240;16.500;2024-03-07T12:52:07;101264.06;;;22.65;40.22